GRL2475 BGGH-BIKF
Flight info
| Callsign | GRL2475 |
|---|---|
| Flight time | 1h 55m |
| Altitude | 35000 |
| Route | EVULO1A EVULO DCT DEVNU DCT GOKIK DCT GIRUG GIRUG4N |
| Aircraft | A320/M-SDE3FGHIRWY/LB1 |
Departure
| Time | 2026-04-24 12:04 |
|---|---|
| Airport | Nuuk International Airport (BGGH) |
Arrival
| Time | 2026-04-24 13:59 |
|---|---|
| Airport | Keflavik International Airport (BIKF) |
| Time | Latitude | Longitude | Altitude | Speed | Heading |
|---|---|---|---|---|---|
| 2026-04-24 11:40 | 64.18359 | -51.67948 | 288 ft | 0 kts | 146° |
| 2026-04-24 11:54 | 64.18360 | -51.67949 | 288 ft | 2 kts | 146° |
| 2026-04-24 11:55 | 64.18373 | -51.67971 | 294 ft | 2 kts | 146° |
| 2026-04-24 11:55 | 64.18387 | -51.67992 | 296 ft | 2 kts | 145° |
| 2026-04-24 11:55 | 64.18400 | -51.68013 | 291 ft | 2 kts | 145° |
| 2026-04-24 11:55 | 64.18414 | -51.68035 | 295 ft | 2 kts | 144° |
| 2026-04-24 11:56 | 64.18427 | -51.68057 | 273 ft | 2 kts | 143° |
| 2026-04-24 11:56 | 64.18440 | -51.68079 | 307 ft | 2 kts | 143° |
| 2026-04-24 11:56 | 64.18446 | -51.68090 | 301 ft | 0 kts | 144° |
| 2026-04-24 11:59 | 64.18443 | -51.68073 | 302 ft | 2 kts | 106° |
| 2026-04-24 11:59 | 64.18456 | -51.68026 | 288 ft | 5 kts | 38° |
| 2026-04-24 11:59 | 64.18499 | -51.67985 | 288 ft | 9 kts | 17° |
| 2026-04-24 11:59 | 64.18560 | -51.67936 | 288 ft | 10 kts | 19° |
| 2026-04-24 12:00 | 64.18624 | -51.67994 | 291 ft | 11 kts | 306° |
| 2026-04-24 12:00 | 64.18637 | -51.68057 | 291 ft | 0 kts | 290° |
| 2026-04-24 12:01 | 64.18654 | -51.68160 | 289 ft | 12 kts | 290° |
| 2026-04-24 12:01 | 64.18612 | -51.68279 | 291 ft | 10 kts | 201° |
| 2026-04-24 12:01 | 64.18497 | -51.68368 | 293 ft | 23 kts | 199° |
| 2026-04-24 12:01 | 64.18337 | -51.68486 | 290 ft | 24 kts | 197° |
| 2026-04-24 12:02 | 64.18224 | -51.68493 | 287 ft | 12 kts | 166° |
| 2026-04-24 12:02 | 64.18162 | -51.68554 | 287 ft | 6 kts | 241° |
| 2026-04-24 12:02 | 64.18165 | -51.68604 | 286 ft | 3 kts | 308° |
| 2026-04-24 12:02 | 64.18196 | -51.68592 | 287 ft | 5 kts | 24° |
| 2026-04-24 12:03 | 64.18213 | -51.68578 | 287 ft | 0 kts | 15° |
| 2026-04-24 12:03 | 64.18213 | -51.68577 | 287 ft | 1 kts | 15° |
| 2026-04-24 12:03 | 64.18338 | -51.68482 | 291 ft | 54 kts | 18° |
| 2026-04-24 12:03 | 64.18964 | -51.68020 | 292 ft | 131 kts | 18° |
| 2026-04-24 12:04 | 64.19991 | -51.67246 | 602 ft | 165 kts | 18° |
| 2026-04-24 12:04 | 64.21113 | -51.66736 | 1566 ft | 165 kts | 356° |
| 2026-04-24 12:04 | 64.22193 | -51.67563 | 2312 ft | 171 kts | 324° |
| 2026-04-24 12:04 | 64.22916 | -51.69911 | 2606 ft | 196 kts | 286° |
| 2026-04-24 12:05 | 64.22831 | -51.73206 | 2899 ft | 224 kts | 248° |
| 2026-04-24 12:05 | 64.21766 | -51.76008 | 3287 ft | 250 kts | 209° |
| 2026-04-24 12:05 | 64.20056 | -51.76984 | 3872 ft | 264 kts | 182° |
| 2026-04-24 12:05 | 64.18204 | -51.76904 | 4681 ft | 269 kts | 177° |
| 2026-04-24 12:06 | 64.16320 | -51.76637 | 5573 ft | 272 kts | 176° |
| 2026-04-24 12:06 | 64.14416 | -51.76358 | 6513 ft | 275 kts | 175° |
| 2026-04-24 12:06 | 64.12564 | -51.75349 | 7408 ft | 275 kts | 155° |
| 2026-04-24 12:06 | 64.10883 | -51.73243 | 8274 ft | 277 kts | 149° |
| 2026-04-24 12:07 | 64.09210 | -51.71046 | 9136 ft | 278 kts | 149° |
| 2026-04-24 12:07 | 64.07533 | -51.68826 | 10041 ft | 278 kts | 148° |
| 2026-04-24 12:07 | 64.06021 | -51.66044 | 10754 ft | 282 kts | 130° |
| 2026-04-24 12:07 | 64.05025 | -51.62174 | 11476 ft | 286 kts | 109° |
| 2026-04-24 12:08 | 64.04703 | -51.57685 | 12220 ft | 291 kts | 89° |
| 2026-04-24 12:08 | 64.05071 | -51.53086 | 12792 ft | 303 kts | 76° |
| 2026-04-24 12:08 | 64.05662 | -51.48276 | 12951 ft | 326 kts | 76° |
| 2026-04-24 12:08 | 64.06310 | -51.43124 | 13088 ft | 348 kts | 76° |
| 2026-04-24 12:09 | 64.06999 | -51.37658 | 13214 ft | 368 kts | 76° |
| 2026-04-24 12:09 | 64.07724 | -51.31877 | 13351 ft | 387 kts | 76° |
| 2026-04-24 12:09 | 64.08464 | -51.25964 | 13715 ft | 396 kts | 76° |
| 2026-04-24 12:09 | 64.09273 | -51.19831 | 14235 ft | 401 kts | 72° |
| 2026-04-24 12:10 | 64.10428 | -51.14081 | 14733 ft | 406 kts | 62° |
| 2026-04-24 12:10 | 64.11894 | -51.08524 | 15250 ft | 409 kts | 60° |
| 2026-04-24 12:10 | 64.13375 | -51.02942 | 15763 ft | 412 kts | 61° |
| 2026-04-24 12:11 | 64.16361 | -50.91654 | 16819 ft | 417 kts | 61° |
| 2026-04-24 12:11 | 64.17866 | -50.85927 | 17329 ft | 419 kts | 61° |
| 2026-04-24 12:11 | 64.19376 | -50.80170 | 17842 ft | 422 kts | 61° |
| 2026-04-24 12:11 | 64.20892 | -50.74381 | 18323 ft | 425 kts | 61° |
| 2026-04-24 12:12 | 64.22414 | -50.68542 | 18800 ft | 427 kts | 61° |
| 2026-04-24 12:12 | 64.23942 | -50.62663 | 19192 ft | 430 kts | 62° |
| 2026-04-24 12:12 | 64.25480 | -50.56730 | 19583 ft | 433 kts | 62° |
| 2026-04-24 12:12 | 64.27025 | -50.50760 | 19974 ft | 435 kts | 62° |
| 2026-04-24 12:13 | 64.28577 | -50.44752 | 20348 ft | 438 kts | 62° |
| 2026-04-24 12:13 | 64.30130 | -50.38728 | 20797 ft | 438 kts | 62° |
| 2026-04-24 12:13 | 64.31679 | -50.32686 | 21205 ft | 439 kts | 62° |
| 2026-04-24 12:13 | 64.33231 | -50.26612 | 21576 ft | 440 kts | 62° |
| 2026-04-24 12:14 | 64.34784 | -50.20513 | 21944 ft | 442 kts | 62° |
| 2026-04-24 12:14 | 64.36346 | -50.14372 | 22302 ft | 444 kts | 62° |
| 2026-04-24 12:14 | 64.37826 | -50.08105 | 22632 ft | 445 kts | 68° |
| 2026-04-24 12:14 | 64.38912 | -50.01445 | 22970 ft | 444 kts | 76° |
| 2026-04-24 12:15 | 64.39621 | -49.94500 | 23308 ft | 444 kts | 80° |
| 2026-04-24 12:15 | 64.40268 | -49.87500 | 23613 ft | 446 kts | 81° |
| 2026-04-24 12:15 | 64.40914 | -49.80460 | 23902 ft | 448 kts | 81° |
| 2026-04-24 12:15 | 64.41561 | -49.73387 | 24155 ft | 450 kts | 81° |
| 2026-04-24 12:16 | 64.42207 | -49.66291 | 24418 ft | 451 kts | 81° |
| 2026-04-24 12:16 | 64.42853 | -49.59159 | 24671 ft | 453 kts | 81° |
| 2026-04-24 12:16 | 64.43493 | -49.52017 | 24923 ft | 454 kts | 81° |
| 2026-04-24 12:16 | 64.44124 | -49.44947 | 25219 ft | 454 kts | 81° |
| 2026-04-24 12:17 | 64.44761 | -49.37803 | 25597 ft | 453 kts | 81° |
| 2026-04-24 12:17 | 64.45393 | -49.30660 | 25991 ft | 451 kts | 81° |
| 2026-04-24 12:17 | 64.46020 | -49.23537 | 26372 ft | 450 kts | 81° |
| 2026-04-24 12:17 | 64.46644 | -49.16424 | 26761 ft | 449 kts | 81° |
| 2026-04-24 12:18 | 64.47259 | -49.09333 | 27154 ft | 448 kts | 81° |
| 2026-04-24 12:18 | 64.47868 | -49.02255 | 27539 ft | 447 kts | 81° |
| 2026-04-24 12:18 | 64.48471 | -48.95200 | 27911 ft | 445 kts | 81° |
| 2026-04-24 12:18 | 64.49070 | -48.88177 | 28342 ft | 443 kts | 81° |
| 2026-04-24 12:19 | 64.49666 | -48.81174 | 28745 ft | 442 kts | 81° |
| 2026-04-24 12:19 | 64.50256 | -48.74195 | 29134 ft | 441 kts | 81° |
| 2026-04-24 12:19 | 64.50840 | -48.67225 | 29501 ft | 440 kts | 81° |
| 2026-04-24 12:19 | 64.51419 | -48.60260 | 29887 ft | 439 kts | 81° |
| 2026-04-24 12:20 | 64.51991 | -48.53304 | 30262 ft | 438 kts | 81° |
| 2026-04-24 12:20 | 64.52558 | -48.46367 | 30601 ft | 437 kts | 81° |
| 2026-04-24 12:20 | 64.53118 | -48.39443 | 30921 ft | 436 kts | 82° |
| 2026-04-24 12:20 | 64.53672 | -48.32533 | 31243 ft | 435 kts | 82° |
| 2026-04-24 12:21 | 64.54227 | -48.25629 | 31564 ft | 434 kts | 82° |
| 2026-04-24 12:21 | 64.54594 | -48.21070 | 31774 ft | 433 kts | 82° |
| 2026-04-24 12:21 | 64.55329 | -48.11856 | 32194 ft | 432 kts | 82° |
| 2026-04-24 12:21 | 64.55865 | -48.05061 | 32512 ft | 431 kts | 82° |
| 2026-04-24 12:22 | 64.56404 | -47.98206 | 32831 ft | 430 kts | 82° |
| 2026-04-24 12:22 | 64.56942 | -47.91345 | 33071 ft | 432 kts | 82° |
| 2026-04-24 12:22 | 64.57305 | -47.86709 | 33226 ft | 432 kts | 82° |
| 2026-04-24 12:22 | 64.57840 | -47.79830 | 33504 ft | 433 kts | 82° |
| 2026-04-24 12:23 | 64.58371 | -47.72948 | 33815 ft | 432 kts | 82° |
| 2026-04-24 12:23 | 64.58899 | -47.66069 | 34128 ft | 431 kts | 82° |
| 2026-04-24 12:23 | 64.59415 | -47.59300 | 34489 ft | 428 kts | 82° |
| 2026-04-24 12:23 | 64.59932 | -47.52478 | 34842 ft | 425 kts | 82° |
| 2026-04-24 12:24 | 64.60440 | -47.45687 | 35128 ft | 424 kts | 82° |
| 2026-04-24 12:24 | 64.60938 | -47.38898 | 35233 ft | 426 kts | 82° |
| 2026-04-24 12:24 | 64.61438 | -47.32065 | 35251 ft | 429 kts | 82° |
| 2026-04-24 12:25 | 64.62438 | -47.18323 | 35248 ft | 431 kts | 82° |
| 2026-04-24 12:25 | 64.63432 | -47.04557 | 35258 ft | 431 kts | 82° |
| 2026-04-24 12:26 | 64.64419 | -46.90729 | 35255 ft | 435 kts | 82° |
| 2026-04-24 12:26 | 64.65391 | -46.76850 | 35258 ft | 437 kts | 82° |
| 2026-04-24 12:27 | 64.66358 | -46.62856 | 35261 ft | 437 kts | 83° |
| 2026-04-24 12:27 | 64.67322 | -46.48856 | 35270 ft | 437 kts | 83° |
| 2026-04-24 12:28 | 64.68273 | -46.34814 | 35268 ft | 437 kts | 83° |
| 2026-04-24 12:28 | 64.69201 | -46.20781 | 35287 ft | 436 kts | 83° |
| 2026-04-24 12:29 | 64.70112 | -46.06773 | 35283 ft | 434 kts | 83° |
| 2026-04-24 12:29 | 64.71004 | -45.92909 | 35290 ft | 433 kts | 83° |
| 2026-04-24 12:30 | 64.71879 | -45.78969 | 35282 ft | 433 kts | 83° |
| 2026-04-24 12:30 | 64.72741 | -45.65031 | 35281 ft | 433 kts | 83° |
| 2026-04-24 12:31 | 64.73598 | -45.51090 | 35290 ft | 433 kts | 83° |
| 2026-04-24 12:31 | 64.74446 | -45.37144 | 35290 ft | 433 kts | 83° |
| 2026-04-24 12:32 | 64.75272 | -45.23197 | 35284 ft | 432 kts | 84° |
| 2026-04-24 12:32 | 64.76089 | -45.09235 | 35282 ft | 432 kts | 84° |
| 2026-04-24 12:33 | 64.76892 | -44.95268 | 35287 ft | 433 kts | 84° |
| 2026-04-24 12:33 | 64.77682 | -44.81282 | 35294 ft | 432 kts | 84° |
| 2026-04-24 12:34 | 64.78454 | -44.67321 | 35299 ft | 431 kts | 84° |
| 2026-04-24 12:34 | 64.79210 | -44.53397 | 35315 ft | 430 kts | 84° |
| 2026-04-24 12:35 | 64.79954 | -44.39447 | 35308 ft | 430 kts | 84° |
| 2026-04-24 12:35 | 64.80690 | -44.25621 | 35307 ft | 430 kts | 84° |
| 2026-04-24 12:36 | 64.81413 | -44.11689 | 35337 ft | 430 kts | 84° |
| 2026-04-24 12:36 | 64.82114 | -43.97748 | 35316 ft | 430 kts | 84° |
| 2026-04-24 12:37 | 64.82806 | -43.83750 | 35324 ft | 432 kts | 85° |
| 2026-04-24 12:37 | 64.83492 | -43.69721 | 35354 ft | 433 kts | 85° |
| 2026-04-24 12:38 | 64.84166 | -43.55664 | 35355 ft | 433 kts | 85° |
| 2026-04-24 12:38 | 64.84825 | -43.41691 | 35357 ft | 433 kts | 85° |
| 2026-04-24 12:39 | 64.86092 | -43.13520 | 35391 ft | 433 kts | 85° |
| 2026-04-24 12:40 | 64.86714 | -42.99427 | 35420 ft | 433 kts | 85° |
| 2026-04-24 12:40 | 64.87323 | -42.85290 | 35411 ft | 435 kts | 85° |
| 2026-04-24 12:41 | 64.87909 | -42.71102 | 35416 ft | 436 kts | 85° |
| 2026-04-24 12:41 | 64.88486 | -42.56862 | 35444 ft | 437 kts | 85° |
| 2026-04-24 12:42 | 64.89060 | -42.42611 | 35447 ft | 437 kts | 85° |
| 2026-04-24 12:42 | 64.89627 | -42.28323 | 35450 ft | 438 kts | 86° |
| 2026-04-24 12:43 | 64.90166 | -42.14170 | 35482 ft | 436 kts | 86° |
| 2026-04-24 12:43 | 64.90693 | -41.99927 | 35489 ft | 436 kts | 86° |
| 2026-04-24 12:44 | 64.91205 | -41.85700 | 35474 ft | 436 kts | 86° |
| 2026-04-24 12:44 | 64.91710 | -41.71457 | 35474 ft | 437 kts | 86° |
| 2026-04-24 12:45 | 64.92192 | -41.57195 | 35477 ft | 437 kts | 86° |
| 2026-04-24 12:45 | 64.92662 | -41.42902 | 35478 ft | 438 kts | 86° |
| 2026-04-24 12:46 | 64.93133 | -41.28579 | 35484 ft | 438 kts | 86° |
| 2026-04-24 12:46 | 64.93578 | -41.14356 | 35483 ft | 438 kts | 86° |
| 2026-04-24 12:47 | 64.94014 | -41.00044 | 35476 ft | 437 kts | 87° |
| 2026-04-24 12:47 | 64.94436 | -40.85703 | 35473 ft | 438 kts | 86° |
| 2026-04-24 12:48 | 64.94841 | -40.71348 | 35493 ft | 438 kts | 87° |
| 2026-04-24 12:48 | 64.95229 | -40.57023 | 35499 ft | 437 kts | 87° |
| 2026-04-24 12:49 | 64.95602 | -40.42709 | 35505 ft | 437 kts | 87° |
| 2026-04-24 12:49 | 64.95968 | -40.28407 | 35502 ft | 436 kts | 87° |
| 2026-04-24 12:50 | 64.96320 | -40.14107 | 35499 ft | 436 kts | 87° |
| 2026-04-24 12:50 | 64.96658 | -39.99820 | 35493 ft | 436 kts | 87° |
| 2026-04-24 12:51 | 64.96984 | -39.85527 | 35476 ft | 437 kts | 87° |
| 2026-04-24 12:51 | 64.97296 | -39.71278 | 35473 ft | 438 kts | 88° |
| 2026-04-24 12:52 | 64.97587 | -39.56895 | 35475 ft | 439 kts | 88° |
| 2026-04-24 12:52 | 64.97867 | -39.42471 | 35491 ft | 439 kts | 88° |
| 2026-04-24 12:53 | 64.98138 | -39.28086 | 35504 ft | 438 kts | 88° |
| 2026-04-24 12:53 | 64.98400 | -39.13726 | 35505 ft | 437 kts | 88° |
| 2026-04-24 12:54 | 64.98644 | -38.99394 | 35505 ft | 436 kts | 88° |
| 2026-04-24 12:54 | 64.98866 | -38.85166 | 35495 ft | 436 kts | 88° |
| 2026-04-24 12:55 | 64.99078 | -38.70840 | 35492 ft | 436 kts | 88° |
| 2026-04-24 12:55 | 64.99276 | -38.56519 | 35492 ft | 435 kts | 88° |
| 2026-04-24 12:56 | 64.99462 | -38.42214 | 35488 ft | 436 kts | 89° |
| 2026-04-24 12:56 | 64.99634 | -38.27909 | 35485 ft | 435 kts | 89° |
| 2026-04-24 12:57 | 64.99794 | -38.13590 | 35501 ft | 435 kts | 89° |
| 2026-04-24 12:57 | 64.99940 | -37.99266 | 35503 ft | 435 kts | 89° |
| 2026-04-24 12:58 | 65.00068 | -37.85079 | 35493 ft | 434 kts | 89° |
| 2026-04-24 12:58 | 65.00182 | -37.70809 | 35491 ft | 434 kts | 89° |
| 2026-04-24 12:59 | 65.00283 | -37.56537 | 35486 ft | 434 kts | 89° |
| 2026-04-24 12:59 | 65.00382 | -37.42248 | 35490 ft | 433 kts | 89° |
| 2026-04-24 13:00 | 65.00465 | -37.28110 | 35491 ft | 432 kts | 89° |
| 2026-04-24 13:00 | 65.00523 | -37.13865 | 35490 ft | 432 kts | 89° |
| 2026-04-24 13:01 | 65.00567 | -36.99659 | 35481 ft | 432 kts | 89° |
| 2026-04-24 13:01 | 65.00597 | -36.85442 | 35466 ft | 433 kts | 89° |
| 2026-04-24 13:02 | 65.00616 | -36.71186 | 35477 ft | 434 kts | 89° |
| 2026-04-24 13:02 | 65.00624 | -36.56915 | 35486 ft | 433 kts | 89° |
| 2026-04-24 13:03 | 65.00626 | -36.42652 | 35489 ft | 434 kts | 89° |
| 2026-04-24 13:03 | 65.00609 | -36.28490 | 35484 ft | 434 kts | 90° |
| 2026-04-24 13:04 | 65.00571 | -36.14216 | 35486 ft | 433 kts | 90° |
| 2026-04-24 13:04 | 65.00522 | -35.99962 | 35497 ft | 433 kts | 90° |
| 2026-04-24 13:05 | 65.00427 | -35.85691 | 35497 ft | 434 kts | 91° |
| 2026-04-24 13:05 | 65.00100 | -35.71439 | 35491 ft | 434 kts | 93° |
| 2026-04-24 13:06 | 64.99651 | -35.57315 | 35495 ft | 434 kts | 94° |
| 2026-04-24 13:06 | 64.99196 | -35.43109 | 35505 ft | 434 kts | 94° |
| 2026-04-24 13:07 | 64.98766 | -35.28877 | 35491 ft | 434 kts | 93° |
| 2026-04-24 13:07 | 64.98342 | -35.14631 | 35476 ft | 434 kts | 94° |
| 2026-04-24 13:08 | 64.97883 | -35.00389 | 35476 ft | 434 kts | 94° |
| 2026-04-24 13:08 | 64.97407 | -34.86170 | 35475 ft | 434 kts | 94° |
| 2026-04-24 13:09 | 64.96678 | -34.64927 | 35468 ft | 434 kts | 94° |
| 2026-04-24 13:09 | 64.96175 | -34.50709 | 35467 ft | 435 kts | 94° |
| 2026-04-24 13:10 | 64.95658 | -34.36494 | 35479 ft | 435 kts | 94° |
| 2026-04-24 13:10 | 64.95216 | -34.24666 | 35482 ft | 435 kts | 94° |
| 2026-04-24 13:11 | 64.94670 | -34.10458 | 35477 ft | 435 kts | 95° |
| 2026-04-24 13:11 | 64.94111 | -33.96229 | 35466 ft | 435 kts | 95° |
| 2026-04-24 13:12 | 64.93544 | -33.81992 | 35463 ft | 436 kts | 95° |
| 2026-04-24 13:12 | 64.92961 | -33.67748 | 35452 ft | 436 kts | 94° |
| 2026-04-24 13:13 | 64.92360 | -33.53512 | 35442 ft | 437 kts | 95° |
| 2026-04-24 13:13 | 64.91752 | -33.39267 | 35448 ft | 437 kts | 95° |
| 2026-04-24 13:14 | 64.91125 | -33.24994 | 35457 ft | 438 kts | 95° |
| 2026-04-24 13:14 | 64.90479 | -33.10818 | 35446 ft | 438 kts | 95° |
| 2026-04-24 13:15 | 64.89824 | -32.96563 | 35448 ft | 438 kts | 95° |
| 2026-04-24 13:15 | 64.89155 | -32.82325 | 35453 ft | 437 kts | 95° |
| 2026-04-24 13:16 | 64.88475 | -32.68099 | 35455 ft | 437 kts | 95° |
| 2026-04-24 13:16 | 64.87778 | -32.53866 | 35437 ft | 438 kts | 96° |
| 2026-04-24 13:17 | 64.87062 | -32.39611 | 35433 ft | 439 kts | 96° |
| 2026-04-24 13:17 | 64.86338 | -32.25347 | 35436 ft | 439 kts | 96° |
| 2026-04-24 13:18 | 64.85599 | -32.11069 | 35431 ft | 440 kts | 96° |
| 2026-04-24 13:18 | 64.84846 | -31.96776 | 35439 ft | 440 kts | 96° |
| 2026-04-24 13:19 | 64.84076 | -31.82503 | 35435 ft | 440 kts | 96° |
| 2026-04-24 13:19 | 64.83300 | -31.68322 | 35434 ft | 440 kts | 96° |
| 2026-04-24 13:20 | 64.82499 | -31.54061 | 35430 ft | 441 kts | 96° |
| 2026-04-24 13:20 | 64.81680 | -31.39794 | 35442 ft | 441 kts | 96° |
| 2026-04-24 13:21 | 64.80860 | -31.25541 | 35438 ft | 441 kts | 96° |
| 2026-04-24 13:21 | 64.80027 | -31.11281 | 35441 ft | 441 kts | 96° |
| 2026-04-24 13:22 | 64.79176 | -30.97038 | 35435 ft | 441 kts | 97° |
| 2026-04-24 13:22 | 64.78312 | -30.82811 | 35442 ft | 441 kts | 97° |
| 2026-04-24 13:23 | 64.77431 | -30.68588 | 35439 ft | 441 kts | 97° |
| 2026-04-24 13:23 | 64.76531 | -30.54357 | 35418 ft | 442 kts | 97° |
| 2026-04-24 13:24 | 64.75623 | -30.40097 | 35411 ft | 443 kts | 97° |
| 2026-04-24 13:24 | 64.74699 | -30.25810 | 35412 ft | 444 kts | 97° |
| 2026-04-24 13:25 | 64.73766 | -30.11495 | 35412 ft | 445 kts | 97° |
| 2026-04-24 13:25 | 64.72814 | -29.97253 | 35418 ft | 446 kts | 97° |
| 2026-04-24 13:26 | 64.71841 | -29.82933 | 35423 ft | 446 kts | 97° |
| 2026-04-24 13:26 | 64.70850 | -29.68608 | 35431 ft | 446 kts | 98° |
| 2026-04-24 13:27 | 64.69847 | -29.54296 | 35430 ft | 447 kts | 97° |
| 2026-04-24 13:27 | 64.68840 | -29.39925 | 35408 ft | 449 kts | 98° |
| 2026-04-24 13:28 | 64.67804 | -29.25537 | 35405 ft | 450 kts | 98° |
| 2026-04-24 13:28 | 64.66751 | -29.11109 | 35417 ft | 450 kts | 98° |
| 2026-04-24 13:29 | 64.65681 | -28.96698 | 35448 ft | 449 kts | 98° |
| 2026-04-24 13:29 | 64.64606 | -28.82357 | 35445 ft | 448 kts | 98° |
| 2026-04-24 13:30 | 64.63519 | -28.68058 | 35444 ft | 448 kts | 98° |
| 2026-04-24 13:30 | 64.62427 | -28.53872 | 35444 ft | 447 kts | 98° |
| 2026-04-24 13:31 | 64.61305 | -28.39585 | 35414 ft | 449 kts | 98° |
| 2026-04-24 13:31 | 64.60171 | -28.25254 | 35410 ft | 450 kts | 98° |
| 2026-04-24 13:32 | 64.59021 | -28.10902 | 35416 ft | 451 kts | 98° |
| 2026-04-24 13:32 | 64.57867 | -27.96563 | 35413 ft | 451 kts | 99° |
| 2026-04-24 13:33 | 64.56689 | -27.82206 | 35438 ft | 450 kts | 99° |
| 2026-04-24 13:33 | 64.55490 | -27.67896 | 35452 ft | 449 kts | 99° |
| 2026-04-24 13:34 | 64.54288 | -27.53678 | 35446 ft | 448 kts | 99° |
| 2026-04-24 13:34 | 64.53089 | -27.39568 | 35426 ft | 449 kts | 99° |
| 2026-04-24 13:35 | 64.51866 | -27.25324 | 35418 ft | 450 kts | 99° |
| 2026-04-24 13:35 | 64.50612 | -27.11079 | 35417 ft | 451 kts | 99° |
| 2026-04-24 13:36 | 64.48698 | -26.97201 | 35416 ft | 454 kts | 110° |
| 2026-04-24 13:36 | 64.46358 | -26.83602 | 35416 ft | 454 kts | 110° |
| 2026-04-24 13:37 | 64.44013 | -26.70018 | 35435 ft | 453 kts | 110° |
| 2026-04-24 13:37 | 64.41663 | -26.56502 | 35454 ft | 452 kts | 110° |
| 2026-04-24 13:38 | 64.39304 | -26.43051 | 35444 ft | 451 kts | 110° |
| 2026-04-24 13:38 | 64.36932 | -26.29620 | 35425 ft | 452 kts | 110° |
| 2026-04-24 13:39 | 64.34558 | -26.16265 | 35416 ft | 453 kts | 110° |
| 2026-04-24 13:39 | 64.32151 | -26.02810 | 35414 ft | 454 kts | 110° |
| 2026-04-24 13:40 | 64.29732 | -25.89365 | 35414 ft | 454 kts | 110° |
| 2026-04-24 13:40 | 64.27305 | -25.75933 | 35227 ft | 452 kts | 111° |
| 2026-04-24 13:41 | 64.26090 | -25.69276 | 34986 ft | 450 kts | 111° |
| 2026-04-24 13:41 | 64.24873 | -25.62633 | 34741 ft | 450 kts | 111° |
| 2026-04-24 13:41 | 64.23658 | -25.56009 | 34498 ft | 450 kts | 111° |
| 2026-04-24 13:41 | 64.22442 | -25.49386 | 34171 ft | 450 kts | 111° |
| 2026-04-24 13:42 | 64.21215 | -25.42733 | 33157 ft | 450 kts | 111° |
| 2026-04-24 13:42 | 64.20006 | -25.36205 | 32220 ft | 442 kts | 111° |
| 2026-04-24 13:42 | 64.18797 | -25.29701 | 31273 ft | 444 kts | 111° |
| 2026-04-24 13:42 | 64.17579 | -25.23165 | 30256 ft | 448 kts | 111° |
| 2026-04-24 13:43 | 64.16345 | -25.16549 | 29081 ft | 453 kts | 111° |
| 2026-04-24 13:43 | 64.15098 | -25.09898 | 28007 ft | 456 kts | 111° |
| 2026-04-24 13:43 | 64.13836 | -25.03197 | 26821 ft | 461 kts | 111° |
| 2026-04-24 13:43 | 64.12552 | -24.96422 | 25609 ft | 466 kts | 112° |
| 2026-04-24 13:44 | 64.11269 | -24.89688 | 24449 ft | 470 kts | 112° |
| 2026-04-24 13:44 | 64.09978 | -24.82688 | 23214 ft | 472 kts | 110° |
| 2026-04-24 13:44 | 64.08836 | -24.75858 | 22352 ft | 456 kts | 109° |
| 2026-04-24 13:44 | 64.07795 | -24.69191 | 21510 ft | 436 kts | 108° |
| 2026-04-24 13:45 | 64.06826 | -24.62778 | 20729 ft | 423 kts | 108° |
| 2026-04-24 13:45 | 64.05869 | -24.56427 | 19948 ft | 423 kts | 108° |
| 2026-04-24 13:45 | 64.04895 | -24.50091 | 19186 ft | 422 kts | 108° |
| 2026-04-24 13:45 | 64.03901 | -24.43790 | 18383 ft | 422 kts | 109° |
| 2026-04-24 13:46 | 64.02894 | -24.37528 | 17623 ft | 419 kts | 109° |
| 2026-04-24 13:46 | 64.01878 | -24.31320 | 16907 ft | 415 kts | 110° |
| 2026-04-24 13:46 | 64.00866 | -24.25193 | 16215 ft | 412 kts | 110° |
| 2026-04-24 13:46 | 63.99859 | -24.19103 | 15543 ft | 409 kts | 110° |
| 2026-04-24 13:47 | 63.98859 | -24.13038 | 14888 ft | 407 kts | 110° |
| 2026-04-24 13:47 | 63.97873 | -24.07053 | 14261 ft | 404 kts | 110° |
| 2026-04-24 13:47 | 63.96884 | -24.01060 | 13587 ft | 400 kts | 110° |
| 2026-04-24 13:47 | 63.95924 | -23.95238 | 12979 ft | 395 kts | 110° |
| 2026-04-24 13:48 | 63.94961 | -23.89424 | 12374 ft | 391 kts | 110° |
| 2026-04-24 13:48 | 63.94005 | -23.83687 | 11818 ft | 385 kts | 110° |
| 2026-04-24 13:48 | 63.93071 | -23.78108 | 11670 ft | 369 kts | 110° |
| 2026-04-24 13:48 | 63.92172 | -23.72775 | 11540 ft | 353 kts | 110° |
| 2026-04-24 13:49 | 63.91315 | -23.67685 | 11411 ft | 335 kts | 110° |
| 2026-04-24 13:49 | 63.90513 | -23.62929 | 11256 ft | 311 kts | 110° |
| 2026-04-24 13:49 | 63.89752 | -23.58420 | 10896 ft | 304 kts | 110° |
| 2026-04-24 13:49 | 63.89004 | -23.53985 | 10644 ft | 299 kts | 110° |
| 2026-04-24 13:50 | 63.88263 | -23.49600 | 10410 ft | 296 kts | 110° |
| 2026-04-24 13:50 | 63.87524 | -23.45240 | 10259 ft | 295 kts | 110° |
| 2026-04-24 13:50 | 63.86793 | -23.40948 | 10131 ft | 295 kts | 110° |
| 2026-04-24 13:50 | 63.86042 | -23.36564 | 9996 ft | 295 kts | 110° |
| 2026-04-24 13:51 | 63.85309 | -23.32299 | 9854 ft | 294 kts | 110° |
| 2026-04-24 13:51 | 63.84566 | -23.27982 | 9721 ft | 293 kts | 110° |
| 2026-04-24 13:51 | 63.83814 | -23.23602 | 9329 ft | 295 kts | 110° |
| 2026-04-24 13:51 | 63.83077 | -23.19330 | 8870 ft | 295 kts | 110° |
| 2026-04-24 13:52 | 63.82575 | -23.16426 | 8616 ft | 291 kts | 110° |
| 2026-04-24 13:52 | 63.81602 | -23.10803 | 7921 ft | 288 kts | 110° |
| 2026-04-24 13:52 | 63.80873 | -23.06592 | 7450 ft | 286 kts | 110° |
| 2026-04-24 13:52 | 63.80143 | -23.02383 | 6722 ft | 288 kts | 110° |
| 2026-04-24 13:53 | 63.79413 | -22.98201 | 6130 ft | 283 kts | 110° |
| 2026-04-24 13:53 | 63.78693 | -22.94093 | 5626 ft | 279 kts | 111° |
| 2026-04-24 13:53 | 63.77992 | -22.90106 | 5311 ft | 265 kts | 111° |
| 2026-04-24 13:53 | 63.77377 | -22.86262 | 5183 ft | 259 kts | 102° |
| 2026-04-24 13:54 | 63.77203 | -22.82233 | 5061 ft | 256 kts | 84° |
| 2026-04-24 13:54 | 63.77538 | -22.78299 | 4859 ft | 254 kts | 68° |
| 2026-04-24 13:54 | 63.78145 | -22.74549 | 4507 ft | 252 kts | 67° |
| 2026-04-24 13:54 | 63.78740 | -22.70875 | 4192 ft | 248 kts | 67° |
| 2026-04-24 13:55 | 63.79322 | -22.67267 | 3813 ft | 247 kts | 67° |
| 2026-04-24 13:55 | 63.79960 | -22.63727 | 3569 ft | 236 kts | 55° |
| 2026-04-24 13:55 | 63.81068 | -22.61334 | 3429 ft | 212 kts | 26° |
| 2026-04-24 13:55 | 63.82456 | -22.60540 | 3096 ft | 205 kts | 0° |
| 2026-04-24 13:56 | 63.83854 | -22.60553 | 2805 ft | 198 kts | 360° |
| 2026-04-24 13:56 | 63.85214 | -22.60557 | 2507 ft | 193 kts | 0° |
| 2026-04-24 13:56 | 63.86555 | -22.60554 | 2209 ft | 193 kts | 360° |
| 2026-04-24 13:56 | 63.87878 | -22.60552 | 1951 ft | 184 kts | 360° |
| 2026-04-24 13:57 | 63.89119 | -22.60551 | 1691 ft | 173 kts | 359° |
| 2026-04-24 13:57 | 63.90282 | -22.60550 | 1452 ft | 161 kts | 359° |
| 2026-04-24 13:57 | 63.91363 | -22.60549 | 1223 ft | 151 kts | 360° |
| 2026-04-24 13:57 | 63.92377 | -22.60548 | 1022 ft | 137 kts | 359° |
| 2026-04-24 13:58 | 63.93295 | -22.60547 | 820 ft | 131 kts | 359° |
| 2026-04-24 13:58 | 63.94194 | -22.60543 | 641 ft | 128 kts | 358° |
| 2026-04-24 13:58 | 63.95089 | -22.60535 | 431 ft | 128 kts | 356° |
| 2026-04-24 13:58 | 63.95983 | -22.60546 | 271 ft | 129 kts | 357° |
| 2026-04-24 13:59 | 63.96583 | -22.60545 | 161 ft | 127 kts | 358° |
| 2026-04-24 13:59 | 63.97595 | -22.60565 | 151 ft | 82 kts | 0° |
| 2026-04-24 13:59 | 63.97997 | -22.60544 | 148 ft | 34 kts | 0° |
| 2026-04-24 13:59 | 63.98225 | -22.60545 | 153 ft | 29 kts | 0° |
| 2026-04-24 14:00 | 63.98352 | -22.60547 | 153 ft | 26 kts | 360° |
| 2026-04-24 14:00 | 63.98527 | -22.60545 | 154 ft | 26 kts | 359° |
| 2026-04-24 14:00 | 63.98767 | -22.60544 | 154 ft | 25 kts | 359° |
| 2026-04-24 14:00 | 63.98933 | -22.60546 | 162 ft | 23 kts | 359° |
| 2026-04-24 14:01 | 63.99048 | -22.60544 | 167 ft | 24 kts | 0° |
| 2026-04-24 14:01 | 63.99158 | -22.60521 | 172 ft | 13 kts | 36° |
| 2026-04-24 14:01 | 63.99171 | -22.60330 | 174 ft | 11 kts | 91° |
| 2026-04-24 14:01 | 63.99171 | -22.60158 | 174 ft | 12 kts | 89° |
| 2026-04-24 14:02 | 63.99149 | -22.59990 | 174 ft | 11 kts | 130° |
| 2026-04-24 14:02 | 63.99086 | -22.59844 | 173 ft | 20 kts | 134° |
| 2026-04-24 14:02 | 63.98958 | -22.59553 | 178 ft | 28 kts | 136° |
| 2026-04-24 14:02 | 63.98832 | -22.59374 | 167 ft | 19 kts | 162° |
| 2026-04-24 14:03 | 63.98703 | -22.59301 | 155 ft | 19 kts | 177° |
| 2026-04-24 14:03 | 63.98579 | -22.59296 | 145 ft | 17 kts | 179° |
| 2026-04-24 14:03 | 63.98447 | -22.59261 | 135 ft | 20 kts | 158° |
| 2026-04-24 14:03 | 63.98342 | -22.59156 | 145 ft | 12 kts | 158° |